sensor_id;sensor_type;location;lat;lon;timestamp;temperature;humidity
13982;DHT22;7065;50.880;5.502;2023-04-25T00:02:18;7.60;99.90
13982;DHT22;7065;50.880;5.502;2023-04-25T00:04:44;7.60;99.90
13982;DHT22;7065;50.880;5.502;2023-04-25T00:07:11;7.60;99.90
13982;DHT22;7065;50.880;5.502;2023-04-25T00:09:38;7.60;99.90
13982;DHT22;7065;50.880;5.502;2023-04-25T00:12:03;7.70;99.90
13982;DHT22;7065;50.880;5.502;2023-04-25T00:14:30;7.70;99.90
13982;DHT22;7065;50.880;5.502;2023-04-25T00:16:58;7.70;99.90
13982;DHT22;7065;50.880;5.502;2023-04-25T00:19:25;7.70;99.90
13982;DHT22;7065;50.880;5.502;2023-04-25T00:21:52;7.70;99.90
13982;DHT22;7065;50.880;5.502;2023-04-25T00:24:19;7.70;99.90
13982;DHT22;7065;50.880;5.502;2023-04-25T00:26:45;7.70;99.90
13982;DHT22;7065;50.880;5.502;2023-04-25T00:29:11;7.70;99.90
13982;DHT22;7065;50.880;5.502;2023-04-25T00:31:37;7.70;99.90
13982;DHT22;7065;50.880;5.502;2023-04-25T00:34:03;7.70;99.90
13982;DHT22;7065;50.880;5.502;2023-04-25T00:36:28;7.70;99.90
13982;DHT22;7065;50.880;5.502;2023-04-25T00:38:54;7.60;99.90
13982;DHT22;7065;50.880;5.502;2023-04-25T00:41:20;7.60;99.90
13982;DHT22;7065;50.880;5.502;2023-04-25T00:43:46;7.60;99.90
13982;DHT22;7065;50.880;5.502;2023-04-25T00:46:13;7.60;99.90
13982;DHT22;7065;50.880;5.502;2023-04-25T00:48:38;7.60;99.90
13982;DHT22;7065;50.880;5.502;2023-04-25T00:51:04;7.60;99.90
13982;DHT22;7065;50.880;5.502;2023-04-25T00:53:30;7.60;99.90
13982;DHT22;7065;50.880;5.502;2023-04-25T00:55:57;7.60;99.90
13982;DHT22;7065;50.880;5.502;2023-04-25T00:58:24;7.60;99.90
13982;DHT22;7065;50.880;5.502;2023-04-25T01:00:51;7.60;99.90
13982;DHT22;7065;50.880;5.502;2023-04-25T01:03:18;7.60;99.90
13982;DHT22;7065;50.880;5.502;2023-04-25T01:05:46;7.60;99.90
13982;DHT22;7065;50.880;5.502;2023-04-25T01:08:12;7.60;99.90
13982;DHT22;7065;50.880;5.502;2023-04-25T01:10:39;7.60;99.90
13982;DHT22;7065;50.880;5.502;2023-04-25T01:13:05;7.60;99.90
13982;DHT22;7065;50.880;5.502;2023-04-25T01:15:31;7.60;99.90
13982;DHT22;7065;50.880;5.502;2023-04-25T01:17:57;7.60;99.90
13982;DHT22;7065;50.880;5.502;2023-04-25T01:20:24;7.60;99.90
13982;DHT22;7065;50.880;5.502;2023-04-25T01:22:53;7.60;99.90
13982;DHT22;7065;50.880;5.502;2023-04-25T01:25:19;7.50;99.90
13982;DHT22;7065;50.880;5.502;2023-04-25T01:27:45;7.50;99.90
13982;DHT22;7065;50.880;5.502;2023-04-25T01:30:11;7.50;99.90
13982;DHT22;7065;50.880;5.502;2023-04-25T01:32:37;7.50;99.90
13982;DHT22;7065;50.880;5.502;2023-04-25T01:35:07;7.50;99.90
13982;DHT22;7065;50.880;5.502;2023-04-25T01:37:45;7.50;99.90
13982;DHT22;7065;50.880;5.502;2023-04-25T01:40:11;7.40;99.90
13982;DHT22;7065;50.880;5.502;2023-04-25T01:42:40;7.40;99.90
13982;DHT22;7065;50.880;5.502;2023-04-25T01:45:07;7.40;99.90
13982;DHT22;7065;50.880;5.502;2023-04-25T01:47:33;7.40;99.90
13982;DHT22;7065;50.880;5.502;2023-04-25T01:50:03;7.40;99.90
13982;DHT22;7065;50.880;5.502;2023-04-25T01:52:29;7.40;99.90
13982;DHT22;7065;50.880;5.502;2023-04-25T01:54:57;7.40;99.90
13982;DHT22;7065;50.880;5.502;2023-04-25T01:57:24;7.40;99.90
13982;DHT22;7065;50.880;5.502;2023-04-25T01:59:50;7.40;99.90
13982;DHT22;7065;50.880;5.502;2023-04-25T02:02:16;7.30;99.90
13982;DHT22;7065;50.880;5.502;2023-04-25T02:04:42;7.40;99.90
13982;DHT22;7065;50.880;5.502;2023-04-25T02:07:07;7.30;99.90
13982;DHT22;7065;50.880;5.502;2023-04-25T02:09:33;7.30;99.90
13982;DHT22;7065;50.880;5.502;2023-04-25T02:11:59;7.30;99.90
13982;DHT22;7065;50.880;5.502;2023-04-25T02:14:25;7.30;99.90
13982;DHT22;7065;50.880;5.502;2023-04-25T02:16:50;7.30;99.90
13982;DHT22;7065;50.880;5.502;2023-04-25T02:19:16;7.20;99.90
13982;DHT22;7065;50.880;5.502;2023-04-25T02:21:42;7.20;99.90
13982;DHT22;7065;50.880;5.502;2023-04-25T02:24:08;7.20;99.90
13982;DHT22;7065;50.880;5.502;2023-04-25T02:26:34;7.20;99.90
13982;DHT22;7065;50.880;5.502;2023-04-25T02:29:00;7.20;99.90
13982;DHT22;7065;50.880;5.502;2023-04-25T02:31:26;7.20;99.90
13982;DHT22;7065;50.880;5.502;2023-04-25T02:33:52;7.20;99.90
13982;DHT22;7065;50.880;5.502;2023-04-25T02:36:18;7.20;99.90
13982;DHT22;7065;50.880;5.502;2023-04-25T02:38:43;7.10;99.90
13982;DHT22;7065;50.880;5.502;2023-04-25T02:41:09;7.10;99.90
13982;DHT22;7065;50.880;5.502;2023-04-25T02:43:35;7.10;99.90
13982;DHT22;7065;50.880;5.502;2023-04-25T02:46:00;7.10;99.90
13982;DHT22;7065;50.880;5.502;2023-04-25T02:48:26;7.10;99.90
13982;DHT22;7065;50.880;5.502;2023-04-25T02:50:52;7.00;99.90
13982;DHT22;7065;50.880;5.502;2023-04-25T02:53:17;7.00;99.90
13982;DHT22;7065;50.880;5.502;2023-04-25T02:55:43;7.00;99.90
13982;DHT22;7065;50.880;5.502;2023-04-25T02:58:09;7.00;99.90
13982;DHT22;7065;50.880;5.502;2023-04-25T03:00:35;7.00;99.90
13982;DHT22;7065;50.880;5.502;2023-04-25T03:03:01;7.10;99.90
13982;DHT22;7065;50.880;5.502;2023-04-25T03:05:26;7.00;99.90
13982;DHT22;7065;50.880;5.502;2023-04-25T03:07:53;7.00;99.90
13982;DHT22;7065;50.880;5.502;2023-04-25T03:10:19;7.00;99.90
13982;DHT22;7065;50.880;5.502;2023-04-25T03:12:44;7.00;99.90
13982;DHT22;7065;50.880;5.502;2023-04-25T03:15:10;7.00;99.90
13982;DHT22;7065;50.880;5.502;2023-04-25T03:17:36;7.00;99.90
13982;DHT22;7065;50.880;5.502;2023-04-25T03:20:01;7.00;99.90
13982;DHT22;7065;50.880;5.502;2023-04-25T03:22:30;6.90;99.90
13982;DHT22;7065;50.880;5.502;2023-04-25T03:24:56;7.00;99.90
13982;DHT22;7065;50.880;5.502;2023-04-25T03:27:22;7.00;99.90
13982;DHT22;7065;50.880;5.502;2023-04-25T03:29:47;7.00;99.90
13982;DHT22;7065;50.880;5.502;2023-04-25T03:32:13;6.90;99.90
13982;DHT22;7065;50.880;5.502;2023-04-25T03:34:39;6.90;99.90
13982;DHT22;7065;50.880;5.502;2023-04-25T03:37:05;6.90;99.90
13982;DHT22;7065;50.880;5.502;2023-04-25T03:39:31;6.90;99.90
13982;DHT22;7065;50.880;5.502;2023-04-25T03:41:56;6.90;99.90
13982;DHT22;7065;50.880;5.502;2023-04-25T03:44:22;6.90;99.90
13982;DHT22;7065;50.880;5.502;2023-04-25T03:46:49;6.80;99.90
13982;DHT22;7065;50.880;5.502;2023-04-25T03:49:16;6.80;99.90
13982;DHT22;7065;50.880;5.502;2023-04-25T03:51:42;6.80;99.90
13982;DHT22;7065;50.880;5.502;2023-04-25T03:54:07;6.70;99.90
13982;DHT22;7065;50.880;5.502;2023-04-25T03:56:33;6.70;99.90
13982;DHT22;7065;50.880;5.502;2023-04-25T03:58:59;6.70;99.90
13982;DHT22;7065;50.880;5.502;2023-04-25T04:01:24;6.70;99.90
13982;DHT22;7065;50.880;5.502;2023-04-25T04:03:50;6.70;99.90
13982;DHT22;7065;50.880;5.502;2023-04-25T04:06:16;6.70;99.90
13982;DHT22;7065;50.880;5.502;2023-04-25T04:08:42;6.70;99.90
13982;DHT22;7065;50.880;5.502;2023-04-25T04:11:08;6.60;99.90
13982;DHT22;7065;50.880;5.502;2023-04-25T04:13:33;6.60;99.90
13982;DHT22;7065;50.880;5.502;2023-04-25T04:15:59;6.60;99.90
13982;DHT22;7065;50.880;5.502;2023-04-25T04:18:25;6.70;99.90
13982;DHT22;7065;50.880;5.502;2023-04-25T04:20:51;6.70;99.90
13982;DHT22;7065;50.880;5.502;2023-04-25T04:23:16;6.70;99.90
13982;DHT22;7065;50.880;5.502;2023-04-25T04:25:42;6.60;99.90
13982;DHT22;7065;50.880;5.502;2023-04-25T04:28:08;6.60;99.90
13982;DHT22;7065;50.880;5.502;2023-04-25T04:30:34;6.60;99.90
13982;DHT22;7065;50.880;5.502;2023-04-25T04:33:03;6.60;99.90
13982;DHT22;7065;50.880;5.502;2023-04-25T04:35:29;6.60;99.90
13982;DHT22;7065;50.880;5.502;2023-04-25T04:37:54;6.60;99.90
13982;DHT22;7065;50.880;5.502;2023-04-25T04:40:20;6.60;99.90
13982;DHT22;7065;50.880;5.502;2023-04-25T04:42:47;6.60;99.90
13982;DHT22;7065;50.880;5.502;2023-04-25T04:45:13;6.50;99.90
13982;DHT22;7065;50.880;5.502;2023-04-25T04:47:40;6.60;99.90
13982;DHT22;7065;50.880;5.502;2023-04-25T04:50:09;6.50;99.90
13982;DHT22;7065;50.880;5.502;2023-04-25T04:52:36;6.50;99.90
13982;DHT22;7065;50.880;5.502;2023-04-25T04:55:04;6.50;99.90
13982;DHT22;7065;50.880;5.502;2023-04-25T04:57:30;6.50;99.90
13982;DHT22;7065;50.880;5.502;2023-04-25T04:59:56;6.50;99.90
13982;DHT22;7065;50.880;5.502;2023-04-25T05:02:22;6.60;99.90
13982;DHT22;7065;50.880;5.502;2023-04-25T05:04:48;6.60;99.90
13982;DHT22;7065;50.880;5.502;2023-04-25T05:07:14;6.60;99.90
13982;DHT22;7065;50.880;5.502;2023-04-25T05:09:40;6.60;99.90
13982;DHT22;7065;50.880;5.502;2023-04-25T05:12:06;6.60;99.90
13982;DHT22;7065;50.880;5.502;2023-04-25T05:14:33;6.60;99.90
13982;DHT22;7065;50.880;5.502;2023-04-25T05:16:58;6.60;99.90
13982;DHT22;7065;50.880;5.502;2023-04-25T05:19:24;6.70;99.90
13982;DHT22;7065;50.880;5.502;2023-04-25T05:21:50;6.70;99.90
13982;DHT22;7065;50.880;5.502;2023-04-25T05:24:16;6.70;99.90
13982;DHT22;7065;50.880;5.502;2023-04-25T05:26:42;6.70;99.90
13982;DHT22;7065;50.880;5.502;2023-04-25T05:29:07;6.70;99.90
13982;DHT22;7065;50.880;5.502;2023-04-25T05:31:34;6.70;99.90
13982;DHT22;7065;50.880;5.502;2023-04-25T05:34:00;6.70;99.90
13982;DHT22;7065;50.880;5.502;2023-04-25T05:36:25;6.70;99.90
13982;DHT22;7065;50.880;5.502;2023-04-25T05:38:51;6.70;99.90
13982;DHT22;7065;50.880;5.502;2023-04-25T05:41:17;6.70;99.90
13982;DHT22;7065;50.880;5.502;2023-04-25T05:43:43;6.70;99.90
13982;DHT22;7065;50.880;5.502;2023-04-25T05:46:12;6.70;99.90
13982;DHT22;7065;50.880;5.502;2023-04-25T05:48:39;6.80;99.90
13982;DHT22;7065;50.880;5.502;2023-04-25T05:51:05;6.80;99.90
13982;DHT22;7065;50.880;5.502;2023-04-25T05:53:31;6.80;99.90
13982;DHT22;7065;50.880;5.502;2023-04-25T05:55:56;6.80;99.90
13982;DHT22;7065;50.880;5.502;2023-04-25T05:58:22;6.90;99.90
13982;DHT22;7065;50.880;5.502;2023-04-25T06:00:48;6.90;99.90
13982;DHT22;7065;50.880;5.502;2023-04-25T06:03:14;7.00;99.90
13982;DHT22;7065;50.880;5.502;2023-04-25T06:05:41;7.10;99.90
13982;DHT22;7065;50.880;5.502;2023-04-25T06:08:07;7.10;99.90
13982;DHT22;7065;50.880;5.502;2023-04-25T06:10:33;7.20;99.90
13982;DHT22;7065;50.880;5.502;2023-04-25T06:12:59;7.30;99.90
13982;DHT22;7065;50.880;5.502;2023-04-25T06:15:25;7.30;99.90
13982;DHT22;7065;50.880;5.502;2023-04-25T06:17:50;7.30;99.90
13982;DHT22;7065;50.880;5.502;2023-04-25T06:20:16;7.30;99.90
13982;DHT22;7065;50.880;5.502;2023-04-25T06:22:42;7.30;99.90
13982;DHT22;7065;50.880;5.502;2023-04-25T06:25:08;7.30;99.90
13982;DHT22;7065;50.880;5.502;2023-04-25T06:27:34;7.30;99.90
13982;DHT22;7065;50.880;5.502;2023-04-25T06:29:59;7.30;99.90
13982;DHT22;7065;50.880;5.502;2023-04-25T06:32:25;7.30;99.90
13982;DHT22;7065;50.880;5.502;2023-04-25T06:34:53;7.30;99.90
13982;DHT22;7065;50.880;5.502;2023-04-25T06:37:18;7.30;99.90
13982;DHT22;7065;50.880;5.502;2023-04-25T06:39:44;7.40;99.90
13982;DHT22;7065;50.880;5.502;2023-04-25T06:42:10;7.40;99.90
13982;DHT22;7065;50.880;5.502;2023-04-25T06:44:36;7.50;99.90
13982;DHT22;7065;50.880;5.502;2023-04-25T06:47:01;7.60;99.90
13982;DHT22;7065;50.880;5.502;2023-04-25T06:49:27;7.60;99.90
13982;DHT22;7065;50.880;5.502;2023-04-25T06:51:53;7.60;99.90
13982;DHT22;7065;50.880;5.502;2023-04-25T06:54:19;7.60;99.90
13982;DHT22;7065;50.880;5.502;2023-04-25T06:56:44;7.70;99.90
13982;DHT22;7065;50.880;5.502;2023-04-25T06:59:10;7.80;99.90
13982;DHT22;7065;50.880;5.502;2023-04-25T07:01:36;7.80;99.90
13982;DHT22;7065;50.880;5.502;2023-04-25T07:04:01;7.90;99.90
13982;DHT22;7065;50.880;5.502;2023-04-25T07:06:27;7.90;99.90
13982;DHT22;7065;50.880;5.502;2023-04-25T07:08:54;7.90;99.90
13982;DHT22;7065;50.880;5.502;2023-04-25T07:11:20;8.00;99.90
13982;DHT22;7065;50.880;5.502;2023-04-25T07:13:46;8.00;99.90
13982;DHT22;7065;50.880;5.502;2023-04-25T07:16:11;8.00;99.90
13982;DHT22;7065;50.880;5.502;2023-04-25T07:18:37;8.00;99.90
13982;DHT22;7065;50.880;5.502;2023-04-25T07:21:03;8.00;99.90
13982;DHT22;7065;50.880;5.502;2023-04-25T07:23:28;8.00;99.90
13982;DHT22;7065;50.880;5.502;2023-04-25T07:25:54;8.10;99.90
13982;DHT22;7065;50.880;5.502;2023-04-25T07:28:20;8.10;99.90
13982;DHT22;7065;50.880;5.502;2023-04-25T07:30:46;8.10;99.90
13982;DHT22;7065;50.880;5.502;2023-04-25T07:33:11;8.20;99.90
13982;DHT22;7065;50.880;5.502;2023-04-25T07:35:37;8.30;99.90
13982;DHT22;7065;50.880;5.502;2023-04-25T07:38:03;8.40;99.90
13982;DHT22;7065;50.880;5.502;2023-04-25T07:40:29;8.40;99.90
13982;DHT22;7065;50.880;5.502;2023-04-25T07:42:55;8.50;99.90
13982;DHT22;7065;50.880;5.502;2023-04-25T07:45:21;8.60;99.90
13982;DHT22;7065;50.880;5.502;2023-04-25T07:47:47;8.80;99.90
13982;DHT22;7065;50.880;5.502;2023-04-25T07:50:13;8.80;99.90
13982;DHT22;7065;50.880;5.502;2023-04-25T07:52:38;8.80;99.90
13982;DHT22;7065;50.880;5.502;2023-04-25T07:55:04;8.90;99.90
13982;DHT22;7065;50.880;5.502;2023-04-25T07:57:30;9.00;99.90
13982;DHT22;7065;50.880;5.502;2023-04-25T07:59:56;9.00;99.90
13982;DHT22;7065;50.880;5.502;2023-04-25T08:02:21;9.10;99.90
13982;DHT22;7065;50.880;5.502;2023-04-25T08:04:47;9.20;99.90
13982;DHT22;7065;50.880;5.502;2023-04-25T08:07:14;9.10;99.90
13982;DHT22;7065;50.880;5.502;2023-04-25T08:09:40;9.30;99.90
13982;DHT22;7065;50.880;5.502;2023-04-25T08:12:06;9.30;99.90
13982;DHT22;7065;50.880;5.502;2023-04-25T08:14:32;9.40;99.90
13982;DHT22;7065;50.880;5.502;2023-04-25T08:17:02;9.40;99.90
13982;DHT22;7065;50.880;5.502;2023-04-25T08:19:29;9.50;99.90
13982;DHT22;7065;50.880;5.502;2023-04-25T08:21:55;9.40;99.90
13982;DHT22;7065;50.880;5.502;2023-04-25T08:24:22;9.40;99.90
13982;DHT22;7065;50.880;5.502;2023-04-25T08:26:48;9.30;99.90
13982;DHT22;7065;50.880;5.502;2023-04-25T08:29:14;9.30;99.90
13982;DHT22;7065;50.880;5.502;2023-04-25T08:31:40;9.30;99.90
13982;DHT22;7065;50.880;5.502;2023-04-25T08:34:06;9.20;99.90
13982;DHT22;7065;50.880;5.502;2023-04-25T08:36:32;9.30;99.90
13982;DHT22;7065;50.880;5.502;2023-04-25T08:38:58;9.30;99.90
13982;DHT22;7065;50.880;5.502;2023-04-25T08:41:24;9.40;99.90
13982;DHT22;7065;50.880;5.502;2023-04-25T08:43:51;9.50;99.90
13982;DHT22;7065;50.880;5.502;2023-04-25T08:46:20;9.60;99.90
13982;DHT22;7065;50.880;5.502;2023-04-25T08:48:46;9.40;99.90
13982;DHT22;7065;50.880;5.502;2023-04-25T08:51:22;9.60;99.90
13982;DHT22;7065;50.880;5.502;2023-04-25T08:53:53;9.70;99.90
13982;DHT22;7065;50.880;5.502;2023-04-25T08:56:19;9.80;99.90
13982;DHT22;7065;50.880;5.502;2023-04-25T08:58:49;10.00;99.90
13982;DHT22;7065;50.880;5.502;2023-04-25T09:01:18;10.00;99.90
13982;DHT22;7065;50.880;5.502;2023-04-25T09:03:44;9.90;99.90
13982;DHT22;7065;50.880;5.502;2023-04-25T09:06:13;9.70;99.90
13982;DHT22;7065;50.880;5.502;2023-04-25T09:08:40;9.50;99.90
13982;DHT22;7065;50.880;5.502;2023-04-25T09:11:06;9.40;99.90
13982;DHT22;7065;50.880;5.502;2023-04-25T09:13:32;9.40;99.90
13982;DHT22;7065;50.880;5.502;2023-04-25T09:15:58;9.40;99.90
13982;DHT22;7065;50.880;5.502;2023-04-25T09:18:29;9.40;99.90
13982;DHT22;7065;50.880;5.502;2023-04-25T09:21:04;9.40;99.90
13982;DHT22;7065;50.880;5.502;2023-04-25T09:23:30;9.40;99.90
13982;DHT22;7065;50.880;5.502;2023-04-25T09:25:58;9.50;99.90
13982;DHT22;7065;50.880;5.502;2023-04-25T09:28:25;9.60;99.90
13982;DHT22;7065;50.880;5.502;2023-04-25T09:30:57;9.80;99.90
13982;DHT22;7065;50.880;5.502;2023-04-25T09:33:32;9.90;99.90
13982;DHT22;7065;50.880;5.502;2023-04-25T09:36:08;10.00;99.90
13982;DHT22;7065;50.880;5.502;2023-04-25T09:38:45;10.10;99.90
13982;DHT22;7065;50.880;5.502;2023-04-25T09:41:11;10.10;99.90
13982;DHT22;7065;50.880;5.502;2023-04-25T09:43:38;10.10;99.90
13982;DHT22;7065;50.880;5.502;2023-04-25T09:46:13;10.10;99.90
13982;DHT22;7065;50.880;5.502;2023-04-25T09:48:39;10.00;99.90
13982;DHT22;7065;50.880;5.502;2023-04-25T09:51:10;10.00;99.90
13982;DHT22;7065;50.880;5.502;2023-04-25T09:53:43;9.80;99.90
13982;DHT22;7065;50.880;5.502;2023-04-25T09:56:10;9.70;99.90
13982;DHT22;7065;50.880;5.502;2023-04-25T09:58:38;9.70;99.90
13982;DHT22;7065;50.880;5.502;2023-04-25T10:01:10;9.70;99.90
13982;DHT22;7065;50.880;5.502;2023-04-25T10:03:38;9.60;99.90
13982;DHT22;7065;50.880;5.502;2023-04-25T10:06:12;9.50;99.90
13982;DHT22;7065;50.880;5.502;2023-04-25T10:08:38;9.70;99.90
13982;DHT22;7065;50.880;5.502;2023-04-25T10:11:06;9.80;99.90
13982;DHT22;7065;50.880;5.502;2023-04-25T10:13:33;10.00;99.90
13982;DHT22;7065;50.880;5.502;2023-04-25T10:15:59;10.30;99.90
13982;DHT22;7065;50.880;5.502;2023-04-25T10:18:26;10.60;99.90
13982;DHT22;7065;50.880;5.502;2023-04-25T10:20:58;10.70;99.90
13982;DHT22;7065;50.880;5.502;2023-04-25T10:23:25;10.70;99.90
13982;DHT22;7065;50.880;5.502;2023-04-25T10:25:52;10.90;99.90
13982;DHT22;7065;50.880;5.502;2023-04-25T10:28:19;10.90;99.90
13982;DHT22;7065;50.880;5.502;2023-04-25T10:31:04;11.10;99.90
13982;DHT22;7065;50.880;5.502;2023-04-25T10:33:37;10.90;99.90
13982;DHT22;7065;50.880;5.502;2023-04-25T10:38:39;11.10;99.90
13982;DHT22;7065;50.880;5.502;2023-04-25T10:41:07;11.10;99.90
13982;DHT22;7065;50.880;5.502;2023-04-25T10:43:37;11.00;99.90
13982;DHT22;7065;50.880;5.502;2023-04-25T10:46:16;11.00;99.90
13982;DHT22;7065;50.880;5.502;2023-04-25T10:48:52;10.90;99.90
13982;DHT22;7065;50.880;5.502;2023-04-25T10:51:24;10.80;99.90
13982;DHT22;7065;50.880;5.502;2023-04-25T10:54:00;10.80;99.90
13982;DHT22;7065;50.880;5.502;2023-04-25T10:56:28;10.80;99.90
13982;DHT22;7065;50.880;5.502;2023-04-25T10:59:10;10.70;99.90
13982;DHT22;7065;50.880;5.502;2023-04-25T11:01:38;10.80;99.90
13982;DHT22;7065;50.880;5.502;2023-04-25T11:04:04;10.60;99.90
13982;DHT22;7065;50.880;5.502;2023-04-25T11:09:23;10.60;99.90
13982;DHT22;7065;50.880;5.502;2023-04-25T11:11:57;10.80;99.90
13982;DHT22;7065;50.880;5.502;2023-04-25T11:14:23;10.90;99.90
13982;DHT22;7065;50.880;5.502;2023-04-25T11:16:55;11.10;99.90
13982;DHT22;7065;50.880;5.502;2023-04-25T11:19:22;11.00;99.90
13982;DHT22;7065;50.880;5.502;2023-04-25T11:21:47;11.10;99.90
13982;DHT22;7065;50.880;5.502;2023-04-25T11:24:13;11.40;99.90
13982;DHT22;7065;50.880;5.502;2023-04-25T11:26:41;11.50;99.90
13982;DHT22;7065;50.880;5.502;2023-04-25T11:29:07;11.40;99.90
13982;DHT22;7065;50.880;5.502;2023-04-25T11:31:33;11.50;99.90
13982;DHT22;7065;50.880;5.502;2023-04-25T11:33:58;11.70;99.90
13982;DHT22;7065;50.880;5.502;2023-04-25T11:36:25;11.80;99.90
13982;DHT22;7065;50.880;5.502;2023-04-25T11:38:52;11.80;99.90
13982;DHT22;7065;50.880;5.502;2023-04-25T11:41:19;11.90;99.90
13982;DHT22;7065;50.880;5.502;2023-04-25T11:43:45;11.90;99.90
13982;DHT22;7065;50.880;5.502;2023-04-25T11:46:11;12.00;99.90
13982;DHT22;7065;50.880;5.502;2023-04-25T11:48:41;12.10;99.90
13982;DHT22;7065;50.880;5.502;2023-04-25T11:51:07;12.10;99.90
13982;DHT22;7065;50.880;5.502;2023-04-25T11:53:33;12.00;99.90
13982;DHT22;7065;50.880;5.502;2023-04-25T11:55:59;12.00;99.90
13982;DHT22;7065;50.880;5.502;2023-04-25T11:58:26;12.00;99.90
13982;DHT22;7065;50.880;5.502;2023-04-25T12:00:52;11.80;99.90
13982;DHT22;7065;50.880;5.502;2023-04-25T12:03:18;11.80;99.90
13982;DHT22;7065;50.880;5.502;2023-04-25T12:05:45;11.90;99.90
13982;DHT22;7065;50.880;5.502;2023-04-25T12:08:15;11.80;99.90
13982;DHT22;7065;50.880;5.502;2023-04-25T12:10:43;11.80;99.90
13982;DHT22;7065;50.880;5.502;2023-04-25T12:15:48;11.60;99.90
13982;DHT22;7065;50.880;5.502;2023-04-25T12:18:18;11.70;99.90
13982;DHT22;7065;50.880;5.502;2023-04-25T12:20:43;11.70;99.90
13982;DHT22;7065;50.880;5.502;2023-04-25T12:23:09;11.70;99.90
13982;DHT22;7065;50.880;5.502;2023-04-25T12:25:40;11.70;99.90
13982;DHT22;7065;50.880;5.502;2023-04-25T12:28:18;11.70;99.90
13982;DHT22;7065;50.880;5.502;2023-04-25T12:33:24;12.00;99.90
13982;DHT22;7065;50.880;5.502;2023-04-25T12:35:50;12.20;99.90
13982;DHT22;7065;50.880;5.502;2023-04-25T12:38:26;12.30;99.90
13982;DHT22;7065;50.880;5.502;2023-04-25T12:40:53;12.20;99.90
13982;DHT22;7065;50.880;5.502;2023-04-25T12:43:19;11.80;99.90
13982;DHT22;7065;50.880;5.502;2023-04-25T12:45:48;11.30;99.90
13982;DHT22;7065;50.880;5.502;2023-04-25T12:48:15;11.30;99.90
13982;DHT22;7065;50.880;5.502;2023-04-25T12:50:41;11.10;99.90
13982;DHT22;7065;50.880;5.502;2023-04-25T12:53:06;10.80;99.90
13982;DHT22;7065;50.880;5.502;2023-04-25T12:55:32;10.50;99.90
13982;DHT22;7065;50.880;5.502;2023-04-25T12:57:58;10.20;99.90
13982;DHT22;7065;50.880;5.502;2023-04-25T13:00:24;10.00;99.90
13982;DHT22;7065;50.880;5.502;2023-04-25T13:02:50;9.80;99.90
13982;DHT22;7065;50.880;5.502;2023-04-25T13:05:15;9.60;99.90
13982;DHT22;7065;50.880;5.502;2023-04-25T13:07:42;9.60;99.90
13982;DHT22;7065;50.880;5.502;2023-04-25T13:10:08;9.50;99.90
13982;DHT22;7065;50.880;5.502;2023-04-25T13:12:33;9.50;99.90
13982;DHT22;7065;50.880;5.502;2023-04-25T13:14:59;9.60;99.90
13982;DHT22;7065;50.880;5.502;2023-04-25T13:17:26;9.70;99.90
13982;DHT22;7065;50.880;5.502;2023-04-25T13:19:51;9.70;99.90
13982;DHT22;7065;50.880;5.502;2023-04-25T13:22:17;9.90;99.90
13982;DHT22;7065;50.880;5.502;2023-04-25T13:24:45;10.10;99.90
13982;DHT22;7065;50.880;5.502;2023-04-25T13:27:11;10.30;99.90
13982;DHT22;7065;50.880;5.502;2023-04-25T13:29:37;10.50;99.90
13982;DHT22;7065;50.880;5.502;2023-04-25T13:32:06;10.90;99.90
13982;DHT22;7065;50.880;5.502;2023-04-25T13:34:32;11.10;99.90
13982;DHT22;7065;50.880;5.502;2023-04-25T13:36:58;11.40;99.90
13982;DHT22;7065;50.880;5.502;2023-04-25T13:39:24;11.60;99.90
13982;DHT22;7065;50.880;5.502;2023-04-25T13:41:50;11.80;99.90
13982;DHT22;7065;50.880;5.502;2023-04-25T13:44:16;11.80;99.90
13982;DHT22;7065;50.880;5.502;2023-04-25T13:46:41;11.90;99.90
13982;DHT22;7065;50.880;5.502;2023-04-25T13:49:08;11.90;99.90
13982;DHT22;7065;50.880;5.502;2023-04-25T13:51:34;12.00;99.90
13982;DHT22;7065;50.880;5.502;2023-04-25T13:54:00;12.10;99.90
13982;DHT22;7065;50.880;5.502;2023-04-25T13:56:26;12.10;99.90
13982;DHT22;7065;50.880;5.502;2023-04-25T13:58:52;12.10;99.90
13982;DHT22;7065;50.880;5.502;2023-04-25T14:01:18;12.00;99.90
13982;DHT22;7065;50.880;5.502;2023-04-25T14:03:44;11.80;99.90
13982;DHT22;7065;50.880;5.502;2023-04-25T14:06:10;11.70;99.90
13982;DHT22;7065;50.880;5.502;2023-04-25T14:08:38;11.60;99.90
13982;DHT22;7065;50.880;5.502;2023-04-25T14:11:03;11.70;99.90
13982;DHT22;7065;50.880;5.502;2023-04-25T14:13:29;11.60;99.90
13982;DHT22;7065;50.880;5.502;2023-04-25T14:15:55;11.50;99.90
13982;DHT22;7065;50.880;5.502;2023-04-25T14:18:21;11.70;99.90
13982;DHT22;7065;50.880;5.502;2023-04-25T14:20:46;12.00;99.90
13982;DHT22;7065;50.880;5.502;2023-04-25T14:23:12;11.90;99.90
13982;DHT22;7065;50.880;5.502;2023-04-25T14:25:38;11.70;99.90
13982;DHT22;7065;50.880;5.502;2023-04-25T14:28:04;11.40;99.90
13982;DHT22;7065;50.880;5.502;2023-04-25T14:30:30;11.30;99.90
13982;DHT22;7065;50.880;5.502;2023-04-25T14:32:56;11.20;99.90
13982;DHT22;7065;50.880;5.502;2023-04-25T14:35:22;11.30;99.90
13982;DHT22;7065;50.880;5.502;2023-04-25T14:37:48;11.30;99.90
13982;DHT22;7065;50.880;5.502;2023-04-25T14:40:13;11.20;99.90
13982;DHT22;7065;50.880;5.502;2023-04-25T14:42:40;11.20;99.90
13982;DHT22;7065;50.880;5.502;2023-04-25T14:45:07;11.20;99.90
13982;DHT22;7065;50.880;5.502;2023-04-25T14:47:34;11.10;99.90
13982;DHT22;7065;50.880;5.502;2023-04-25T14:50:00;11.10;99.90
13982;DHT22;7065;50.880;5.502;2023-04-25T14:52:27;11.10;99.90
13982;DHT22;7065;50.880;5.502;2023-04-25T14:54:52;11.10;99.90
13982;DHT22;7065;50.880;5.502;2023-04-25T14:57:18;11.10;99.90
13982;DHT22;7065;50.880;5.502;2023-04-25T14:59:44;11.20;99.90
13982;DHT22;7065;50.880;5.502;2023-04-25T15:02:10;11.40;99.90
13982;DHT22;7065;50.880;5.502;2023-04-25T15:04:36;11.50;99.90
13982;DHT22;7065;50.880;5.502;2023-04-25T15:07:02;11.70;99.90
13982;DHT22;7065;50.880;5.502;2023-04-25T15:09:30;11.80;99.90
13982;DHT22;7065;50.880;5.502;2023-04-25T15:11:57;11.90;99.90
13982;DHT22;7065;50.880;5.502;2023-04-25T15:14:22;12.00;99.90
13982;DHT22;7065;50.880;5.502;2023-04-25T15:16:48;12.10;99.90
13982;DHT22;7065;50.880;5.502;2023-04-25T15:19:14;12.10;99.90
13982;DHT22;7065;50.880;5.502;2023-04-25T15:21:40;12.10;99.90
13982;DHT22;7065;50.880;5.502;2023-04-25T15:24:06;12.10;99.90
13982;DHT22;7065;50.880;5.502;2023-04-25T15:26:31;12.30;99.90
13982;DHT22;7065;50.880;5.502;2023-04-25T15:28:57;12.50;99.90
13982;DHT22;7065;50.880;5.502;2023-04-25T15:31:23;12.60;99.90
13982;DHT22;7065;50.880;5.502;2023-04-25T15:33:48;12.60;99.90
13982;DHT22;7065;50.880;5.502;2023-04-25T15:36:14;12.80;99.90
13982;DHT22;7065;50.880;5.502;2023-04-25T15:38:41;13.00;99.90
13982;DHT22;7065;50.880;5.502;2023-04-25T15:41:07;13.30;99.90
13982;DHT22;7065;50.880;5.502;2023-04-25T15:43:33;13.40;99.90
13982;DHT22;7065;50.880;5.502;2023-04-25T15:46:03;13.50;99.90
13982;DHT22;7065;50.880;5.502;2023-04-25T15:48:29;13.70;99.90
13982;DHT22;7065;50.880;5.502;2023-04-25T15:50:57;13.90;99.90
13982;DHT22;7065;50.880;5.502;2023-04-25T15:53:22;14.20;99.90
13982;DHT22;7065;50.880;5.502;2023-04-25T15:55:48;14.40;99.90
13982;DHT22;7065;50.880;5.502;2023-04-25T15:58:14;14.40;99.90
13982;DHT22;7065;50.880;5.502;2023-04-25T16:00:39;14.80;99.90
13982;DHT22;7065;50.880;5.502;2023-04-25T16:03:05;15.50;99.90
13982;DHT22;7065;50.880;5.502;2023-04-25T16:05:31;16.20;99.90